sensor_id;sensor_type;location;lat;lon;timestamp;P1;durP1;ratioP1;P2;durP2;ratioP2
10347;SDS011;5220;43.192;23.284;2023-05-29T00:01:58;4.05;;;3.30;;
10347;SDS011;5220;43.192;23.284;2023-05-29T00:04:24;5.03;;;3.58;;
10347;SDS011;5220;43.192;23.284;2023-05-29T00:06:52;4.45;;;3.78;;
10347;SDS011;5220;43.192;23.284;2023-05-29T00:09:20;3.95;;;3.60;;
10347;SDS011;5220;43.192;23.284;2023-05-29T00:11:47;7.25;;;3.45;;
10347;SDS011;5220;43.192;23.284;2023-05-29T00:14:17;6.90;;;3.90;;
10347;SDS011;5220;43.192;23.284;2023-05-29T00:16:44;4.57;;;3.80;;
10347;SDS011;5220;43.192;23.284;2023-05-29T00:19:11;6.55;;;3.22;;
10347;SDS011;5220;43.192;23.284;2023-05-29T00:21:39;3.95;;;3.55;;
10347;SDS011;5220;43.192;23.284;2023-05-29T00:24:07;4.53;;;3.50;;
10347;SDS011;5220;43.192;23.284;2023-05-29T00:26:34;6.03;;;3.40;;
10347;SDS011;5220;43.192;23.284;2023-05-29T00:29:01;4.50;;;3.65;;
10347;SDS011;5220;43.192;23.284;2023-05-29T00:31:27;9.80;;;3.85;;
10347;SDS011;5220;43.192;23.284;2023-05-29T00:33:54;9.20;;;3.28;;
10347;SDS011;5220;43.192;23.284;2023-05-29T00:36:21;8.02;;;3.70;;
10347;SDS011;5220;43.192;23.284;2023-05-29T00:38:48;4.60;;;3.47;;
10347;SDS011;5220;43.192;23.284;2023-05-29T00:41:17;4.03;;;3.40;;
10347;SDS011;5220;43.192;23.284;2023-05-29T00:43:43;9.65;;;3.42;;
10347;SDS011;5220;43.192;23.284;2023-05-29T00:46:10;4.00;;;3.38;;
10347;SDS011;5220;43.192;23.284;2023-05-29T00:48:39;5.15;;;3.55;;
10347;SDS011;5220;43.192;23.284;2023-05-29T00:51:06;5.20;;;3.30;;
10347;SDS011;5220;43.192;23.284;2023-05-29T00:53:34;5.45;;;3.35;;
10347;SDS011;5220;43.192;23.284;2023-05-29T00:56:01;6.28;;;3.35;;
10347;SDS011;5220;43.192;23.284;2023-05-29T00:58:30;5.93;;;3.35;;
10347;SDS011;5220;43.192;23.284;2023-05-29T01:00:57;5.38;;;3.25;;
10347;SDS011;5220;43.192;23.284;2023-05-29T01:03:25;7.93;;;3.47;;
10347;SDS011;5220;43.192;23.284;2023-05-29T01:05:53;6.68;;;3.13;;
10347;SDS011;5220;43.192;23.284;2023-05-29T01:08:20;5.90;;;2.97;;
10347;SDS011;5220;43.192;23.284;2023-05-29T01:10:46;10.18;;;3.33;;
10347;SDS011;5220;43.192;23.284;2023-05-29T01:13:16;7.00;;;3.10;;
10347;SDS011;5220;43.192;23.284;2023-05-29T01:15:48;4.18;;;3.00;;
10347;SDS011;5220;43.192;23.284;2023-05-29T01:18:26;3.35;;;3.05;;
10347;SDS011;5220;43.192;23.284;2023-05-29T01:21:02;6.60;;;3.05;;
10347;SDS011;5220;43.192;23.284;2023-05-29T01:23:37;6.72;;;3.25;;
10347;SDS011;5220;43.192;23.284;2023-05-29T01:29:12;9.05;;;3.15;;
10347;SDS011;5220;43.192;23.284;2023-05-29T01:31:42;3.97;;;3.00;;
10347;SDS011;5220;43.192;23.284;2023-05-29T01:34:09;4.65;;;3.53;;
10347;SDS011;5220;43.192;23.284;2023-05-29T01:36:36;6.22;;;3.63;;
10347;SDS011;5220;43.192;23.284;2023-05-29T01:39:03;8.57;;;3.80;;
10347;SDS011;5220;43.192;23.284;2023-05-29T01:41:30;6.25;;;3.22;;
10347;SDS011;5220;43.192;23.284;2023-05-29T01:44:01;8.35;;;3.42;;
10347;SDS011;5220;43.192;23.284;2023-05-29T01:46:30;3.83;;;3.33;;
10347;SDS011;5220;43.192;23.284;2023-05-29T01:48:56;5.70;;;3.10;;
10347;SDS011;5220;43.192;23.284;2023-05-29T01:51:23;4.07;;;3.03;;
10347;SDS011;5220;43.192;23.284;2023-05-29T01:53:50;6.07;;;3.30;;
10347;SDS011;5220;43.192;23.284;2023-05-29T01:56:17;5.28;;;3.30;;
10347;SDS011;5220;43.192;23.284;2023-05-29T01:58:44;6.75;;;3.03;;
10347;SDS011;5220;43.192;23.284;2023-05-29T02:01:13;4.00;;;2.70;;
10347;SDS011;5220;43.192;23.284;2023-05-29T02:03:40;8.48;;;3.70;;
10347;SDS011;5220;43.192;23.284;2023-05-29T02:06:07;5.40;;;3.30;;
10347;SDS011;5220;43.192;23.284;2023-05-29T02:08:33;5.63;;;3.25;;
10347;SDS011;5220;43.192;23.284;2023-05-29T02:11:00;5.10;;;3.15;;
10347;SDS011;5220;43.192;23.284;2023-05-29T02:13:27;5.68;;;3.65;;
10347;SDS011;5220;43.192;23.284;2023-05-29T02:15:54;4.28;;;3.50;;
10347;SDS011;5220;43.192;23.284;2023-05-29T02:18:22;4.88;;;3.78;;
10347;SDS011;5220;43.192;23.284;2023-05-29T02:20:49;7.03;;;3.85;;
10347;SDS011;5220;43.192;23.284;2023-05-29T02:23:16;5.95;;;3.95;;
10347;SDS011;5220;43.192;23.284;2023-05-29T02:25:44;3.85;;;3.55;;
10347;SDS011;5220;43.192;23.284;2023-05-29T02:28:11;6.65;;;3.90;;
10347;SDS011;5220;43.192;23.284;2023-05-29T02:30:37;4.90;;;4.40;;
10347;SDS011;5220;43.192;23.284;2023-05-29T02:33:04;7.30;;;4.40;;
10347;SDS011;5220;43.192;23.284;2023-05-29T02:35:33;4.93;;;3.47;;
10347;SDS011;5220;43.192;23.284;2023-05-29T02:38:00;8.15;;;4.60;;
10347;SDS011;5220;43.192;23.284;2023-05-29T02:40:26;7.15;;;4.78;;
10347;SDS011;5220;43.192;23.284;2023-05-29T02:42:53;5.00;;;4.28;;
10347;SDS011;5220;43.192;23.284;2023-05-29T02:45:20;9.02;;;4.93;;
10347;SDS011;5220;43.192;23.284;2023-05-29T02:47:47;7.85;;;4.40;;
10347;SDS011;5220;43.192;23.284;2023-05-29T02:50:13;6.22;;;4.50;;
10347;SDS011;5220;43.192;23.284;2023-05-29T02:52:41;7.25;;;4.95;;
10347;SDS011;5220;43.192;23.284;2023-05-29T02:55:08;9.30;;;5.07;;
10347;SDS011;5220;43.192;23.284;2023-05-29T02:57:35;5.85;;;5.25;;
10347;SDS011;5220;43.192;23.284;2023-05-29T03:00:02;9.85;;;5.68;;
10347;SDS011;5220;43.192;23.284;2023-05-29T03:02:31;13.30;;;6.15;;
10347;SDS011;5220;43.192;23.284;2023-05-29T03:04:58;7.07;;;5.30;;
10347;SDS011;5220;43.192;23.284;2023-05-29T03:07:25;11.95;;;7.70;;
10347;SDS011;5220;43.192;23.284;2023-05-29T03:09:53;12.73;;;7.50;;
10347;SDS011;5220;43.192;23.284;2023-05-29T03:12:20;11.93;;;7.55;;
10347;SDS011;5220;43.192;23.284;2023-05-29T03:14:47;10.10;;;7.65;;
10347;SDS011;5220;43.192;23.284;2023-05-29T03:17:13;10.30;;;7.03;;
10347;SDS011;5220;43.192;23.284;2023-05-29T03:19:40;11.00;;;6.00;;
10347;SDS011;5220;43.192;23.284;2023-05-29T03:22:07;9.07;;;6.18;;
10347;SDS011;5220;43.192;23.284;2023-05-29T03:24:34;8.63;;;6.43;;
10347;SDS011;5220;43.192;23.284;2023-05-29T03:27:02;8.73;;;5.97;;
10347;SDS011;5220;43.192;23.284;2023-05-29T03:29:30;6.45;;;5.50;;
10347;SDS011;5220;43.192;23.284;2023-05-29T03:31:57;9.05;;;6.00;;
10347;SDS011;5220;43.192;23.284;2023-05-29T03:34:24;11.02;;;5.90;;
10347;SDS011;5220;43.192;23.284;2023-05-29T03:36:51;7.20;;;6.20;;
10347;SDS011;5220;43.192;23.284;2023-05-29T03:39:18;7.72;;;5.53;;
10347;SDS011;5220;43.192;23.284;2023-05-29T03:41:45;6.65;;;5.50;;
10347;SDS011;5220;43.192;23.284;2023-05-29T03:44:13;8.95;;;5.45;;
10347;SDS011;5220;43.192;23.284;2023-05-29T03:46:40;5.13;;;4.70;;
10347;SDS011;5220;43.192;23.284;2023-05-29T03:49:06;7.07;;;4.65;;
10347;SDS011;5220;43.192;23.284;2023-05-29T03:51:33;5.45;;;4.95;;
10347;SDS011;5220;43.192;23.284;2023-05-29T03:54:00;5.20;;;4.70;;
10347;SDS011;5220;43.192;23.284;2023-05-29T03:56:27;9.30;;;4.70;;
10347;SDS011;5220;43.192;23.284;2023-05-29T03:58:53;6.35;;;4.90;;
10347;SDS011;5220;43.192;23.284;2023-05-29T04:01:22;9.80;;;4.78;;
10347;SDS011;5220;43.192;23.284;2023-05-29T04:03:49;6.20;;;4.95;;
10347;SDS011;5220;43.192;23.284;2023-05-29T04:06:16;8.15;;;4.57;;
10347;SDS011;5220;43.192;23.284;2023-05-29T04:08:42;8.82;;;4.63;;
10347;SDS011;5220;43.192;23.284;2023-05-29T04:11:09;7.03;;;4.55;;
10347;SDS011;5220;43.192;23.284;2023-05-29T04:13:37;8.27;;;4.90;;
10347;SDS011;5220;43.192;23.284;2023-05-29T04:16:04;8.30;;;4.75;;
10347;SDS011;5220;43.192;23.284;2023-05-29T04:18:32;9.43;;;5.82;;
10347;SDS011;5220;43.192;23.284;2023-05-29T04:20:59;6.60;;;5.53;;
10347;SDS011;5220;43.192;23.284;2023-05-29T04:23:26;6.70;;;5.85;;
10347;SDS011;5220;43.192;23.284;2023-05-29T04:25:52;11.02;;;6.55;;
10347;SDS011;5220;43.192;23.284;2023-05-29T04:28:19;7.47;;;5.45;;
10347;SDS011;5220;43.192;23.284;2023-05-29T04:30:46;7.75;;;5.65;;
10347;SDS011;5220;43.192;23.284;2023-05-29T04:33:13;10.20;;;6.60;;
10347;SDS011;5220;43.192;23.284;2023-05-29T04:35:41;6.63;;;6.03;;
10347;SDS011;5220;43.192;23.284;2023-05-29T04:38:08;8.13;;;6.25;;
10347;SDS011;5220;43.192;23.284;2023-05-29T04:40:35;8.38;;;6.03;;
10347;SDS011;5220;43.192;23.284;2023-05-29T04:43:02;7.72;;;5.13;;
10347;SDS011;5220;43.192;23.284;2023-05-29T04:45:30;6.28;;;5.68;;
10347;SDS011;5220;43.192;23.284;2023-05-29T04:47:57;5.45;;;4.93;;
10347;SDS011;5220;43.192;23.284;2023-05-29T04:50:23;8.65;;;5.15;;
10347;SDS011;5220;43.192;23.284;2023-05-29T04:52:52;5.22;;;4.70;;
10347;SDS011;5220;43.192;23.284;2023-05-29T04:55:19;7.13;;;5.03;;
10347;SDS011;5220;43.192;23.284;2023-05-29T04:57:45;8.18;;;4.88;;
10347;SDS011;5220;43.192;23.284;2023-05-29T05:00:12;6.05;;;4.38;;
10347;SDS011;5220;43.192;23.284;2023-05-29T05:02:41;4.80;;;4.40;;
10347;SDS011;5220;43.192;23.284;2023-05-29T05:05:09;4.68;;;4.30;;
10347;SDS011;5220;43.192;23.284;2023-05-29T05:07:35;6.95;;;3.83;;
10347;SDS011;5220;43.192;23.284;2023-05-29T05:10:04;4.30;;;3.90;;
10347;SDS011;5220;43.192;23.284;2023-05-29T05:12:31;5.88;;;3.55;;
10347;SDS011;5220;43.192;23.284;2023-05-29T05:14:58;5.28;;;3.90;;
10347;SDS011;5220;43.192;23.284;2023-05-29T05:17:25;5.32;;;4.22;;
10347;SDS011;5220;43.192;23.284;2023-05-29T05:19:52;6.55;;;5.30;;
10347;SDS011;5220;43.192;23.284;2023-05-29T05:22:19;5.00;;;4.50;;
10347;SDS011;5220;43.192;23.284;2023-05-29T05:24:46;4.90;;;4.03;;
10347;SDS011;5220;43.192;23.284;2023-05-29T05:27:14;8.25;;;4.70;;
10347;SDS011;5220;43.192;23.284;2023-05-29T05:29:40;4.70;;;4.30;;
10347;SDS011;5220;43.192;23.284;2023-05-29T05:32:07;5.82;;;5.18;;
10347;SDS011;5220;43.192;23.284;2023-05-29T05:34:34;5.78;;;4.90;;
10347;SDS011;5220;43.192;23.284;2023-05-29T05:37:00;5.28;;;4.78;;
10347;SDS011;5220;43.192;23.284;2023-05-29T05:39:27;6.80;;;5.38;;
10347;SDS011;5220;43.192;23.284;2023-05-29T05:41:54;6.00;;;5.50;;
10347;SDS011;5220;43.192;23.284;2023-05-29T05:44:22;7.95;;;5.57;;
10347;SDS011;5220;43.192;23.284;2023-05-29T05:46:49;7.72;;;5.47;;
10347;SDS011;5220;43.192;23.284;2023-05-29T05:49:16;5.55;;;5.03;;
10347;SDS011;5220;43.192;23.284;2023-05-29T05:51:42;4.65;;;4.32;;
10347;SDS011;5220;43.192;23.284;2023-05-29T05:54:09;8.30;;;5.07;;
10347;SDS011;5220;43.192;23.284;2023-05-29T05:56:36;5.43;;;4.65;;
10347;SDS011;5220;43.192;23.284;2023-05-29T05:59:03;5.03;;;4.18;;
10347;SDS011;5220;43.192;23.284;2023-05-29T06:01:31;4.38;;;3.97;;
10347;SDS011;5220;43.192;23.284;2023-05-29T06:03:58;4.45;;;4.05;;
10347;SDS011;5220;43.192;23.284;2023-05-29T06:06:24;4.80;;;3.60;;
10347;SDS011;5220;43.192;23.284;2023-05-29T06:08:51;4.93;;;4.43;;
10347;SDS011;5220;43.192;23.284;2023-05-29T06:11:18;6.20;;;4.30;;
10347;SDS011;5220;43.192;23.284;2023-05-29T06:13:44;4.85;;;3.63;;
10347;SDS011;5220;43.192;23.284;2023-05-29T06:16:11;3.83;;;3.53;;
10347;SDS011;5220;43.192;23.284;2023-05-29T06:18:39;3.72;;;3.42;;
10347;SDS011;5220;43.192;23.284;2023-05-29T06:21:06;3.65;;;3.35;;
10347;SDS011;5220;43.192;23.284;2023-05-29T06:23:34;4.05;;;3.70;;
10347;SDS011;5220;43.192;23.284;2023-05-29T06:26:02;4.43;;;4.05;;
10347;SDS011;5220;43.192;23.284;2023-05-29T06:28:29;3.88;;;3.53;;
10347;SDS011;5220;43.192;23.284;2023-05-29T06:30:56;5.93;;;5.32;;
10347;SDS011;5220;43.192;23.284;2023-05-29T06:33:22;6.13;;;5.22;;
10347;SDS011;5220;43.192;23.284;2023-05-29T06:35:50;6.95;;;6.13;;
10347;SDS011;5220;43.192;23.284;2023-05-29T06:38:17;5.20;;;3.92;;
10347;SDS011;5220;43.192;23.284;2023-05-29T06:40:44;3.92;;;3.63;;
10347;SDS011;5220;43.192;23.284;2023-05-29T06:43:10;5.75;;;4.03;;
10347;SDS011;5220;43.192;23.284;2023-05-29T06:45:37;6.88;;;4.40;;
10347;SDS011;5220;43.192;23.284;2023-05-29T06:48:04;5.35;;;4.80;;
10347;SDS011;5220;43.192;23.284;2023-05-29T06:50:31;4.70;;;4.30;;
10347;SDS011;5220;43.192;23.284;2023-05-29T06:53:00;5.90;;;5.18;;
10347;SDS011;5220;43.192;23.284;2023-05-29T06:55:27;7.22;;;5.80;;
10347;SDS011;5220;43.192;23.284;2023-05-29T06:57:53;6.75;;;6.00;;
10347;SDS011;5220;43.192;23.284;2023-05-29T07:00:20;8.38;;;6.90;;
10347;SDS011;5220;43.192;23.284;2023-05-29T07:02:48;7.65;;;6.95;;
10347;SDS011;5220;43.192;23.284;2023-05-29T07:05:16;8.77;;;6.85;;
10347;SDS011;5220;43.192;23.284;2023-05-29T07:07:42;7.00;;;6.32;;
10347;SDS011;5220;43.192;23.284;2023-05-29T07:10:11;7.97;;;6.15;;
10347;SDS011;5220;43.192;23.284;2023-05-29T07:12:38;6.85;;;6.15;;
10347;SDS011;5220;43.192;23.284;2023-05-29T07:15:04;7.07;;;6.10;;
10347;SDS011;5220;43.192;23.284;2023-05-29T07:17:32;8.00;;;6.00;;
10347;SDS011;5220;43.192;23.284;2023-05-29T07:19:58;8.00;;;6.07;;
10347;SDS011;5220;43.192;23.284;2023-05-29T07:22:25;11.05;;;6.85;;
10347;SDS011;5220;43.192;23.284;2023-05-29T07:24:52;9.25;;;6.32;;
10347;SDS011;5220;43.192;23.284;2023-05-29T07:27:20;7.72;;;7.00;;
10347;SDS011;5220;43.192;23.284;2023-05-29T07:29:46;8.07;;;7.28;;
10347;SDS011;5220;43.192;23.284;2023-05-29T07:32:13;7.28;;;6.57;;
10347;SDS011;5220;43.192;23.284;2023-05-29T07:34:40;7.78;;;6.47;;
10347;SDS011;5220;43.192;23.284;2023-05-29T07:37:07;8.00;;;7.18;;
10347;SDS011;5220;43.192;23.284;2023-05-29T07:39:34;6.55;;;5.95;;
10347;SDS011;5220;43.192;23.284;2023-05-29T07:42:01;8.40;;;6.32;;
10347;SDS011;5220;43.192;23.284;2023-05-29T07:44:29;6.75;;;6.15;;
10347;SDS011;5220;43.192;23.284;2023-05-29T07:46:56;8.60;;;5.75;;
10347;SDS011;5220;43.192;23.284;2023-05-29T07:49:23;7.20;;;6.07;;
10347;SDS011;5220;43.192;23.284;2023-05-29T07:51:50;6.47;;;5.88;;
10347;SDS011;5220;43.192;23.284;2023-05-29T07:54:16;6.65;;;6.05;;
10347;SDS011;5220;43.192;23.284;2023-05-29T07:56:45;7.57;;;6.88;;
10347;SDS011;5220;43.192;23.284;2023-05-29T07:59:12;10.15;;;6.45;;
10347;SDS011;5220;43.192;23.284;2023-05-29T08:01:40;7.90;;;7.13;;
10347;SDS011;5220;43.192;23.284;2023-05-29T08:04:08;8.25;;;6.35;;
10347;SDS011;5220;43.192;23.284;2023-05-29T08:06:35;8.07;;;7.15;;
10347;SDS011;5220;43.192;23.284;2023-05-29T08:09:02;7.97;;;7.18;;
10347;SDS011;5220;43.192;23.284;2023-05-29T08:11:30;10.93;;;7.15;;
10347;SDS011;5220;43.192;23.284;2023-05-29T08:13:57;7.68;;;6.88;;
10347;SDS011;5220;43.192;23.284;2023-05-29T08:16:24;7.95;;;7.18;;
10347;SDS011;5220;43.192;23.284;2023-05-29T08:18:53;9.80;;;6.95;;
10347;SDS011;5220;43.192;23.284;2023-05-29T08:21:21;10.45;;;6.75;;
10347;SDS011;5220;43.192;23.284;2023-05-29T08:23:47;10.20;;;7.70;;
10347;SDS011;5220;43.192;23.284;2023-05-29T08:26:14;8.50;;;7.65;;
10347;SDS011;5220;43.192;23.284;2023-05-29T08:28:41;11.07;;;7.47;;
10347;SDS011;5220;43.192;23.284;2023-05-29T08:31:07;7.18;;;6.53;;
10347;SDS011;5220;43.192;23.284;2023-05-29T08:33:34;10.30;;;6.25;;
10347;SDS011;5220;43.192;23.284;2023-05-29T08:36:03;6.50;;;5.90;;
10347;SDS011;5220;43.192;23.284;2023-05-29T08:38:30;9.70;;;6.85;;
10347;SDS011;5220;43.192;23.284;2023-05-29T08:40:56;8.48;;;7.10;;
10347;SDS011;5220;43.192;23.284;2023-05-29T08:43:23;7.53;;;6.70;;
10347;SDS011;5220;43.192;23.284;2023-05-29T08:45:52;8.00;;;7.25;;
10347;SDS011;5220;43.192;23.284;2023-05-29T08:48:22;7.40;;;6.65;;
10347;SDS011;5220;43.192;23.284;2023-05-29T08:50:50;8.70;;;6.50;;
10347;SDS011;5220;43.192;23.284;2023-05-29T08:53:21;7.53;;;6.75;;
10347;SDS011;5220;43.192;23.284;2023-05-29T08:55:49;8.35;;;6.30;;
10347;SDS011;5220;43.192;23.284;2023-05-29T08:58:17;7.65;;;6.28;;
10347;SDS011;5220;43.192;23.284;2023-05-29T09:00:45;6.53;;;5.93;;
10347;SDS011;5220;43.192;23.284;2023-05-29T09:03:12;7.82;;;7.03;;
10347;SDS011;5220;43.192;23.284;2023-05-29T09:05:39;7.40;;;6.35;;
10347;SDS011;5220;43.192;23.284;2023-05-29T09:08:06;7.88;;;5.72;;
10347;SDS011;5220;43.192;23.284;2023-05-29T09:10:38;9.95;;;6.72;;
10347;SDS011;5220;43.192;23.284;2023-05-29T09:13:05;9.70;;;7.15;;
10347;SDS011;5220;43.192;23.284;2023-05-29T09:15:32;7.65;;;6.95;;
10347;SDS011;5220;43.192;23.284;2023-05-29T09:17:59;7.13;;;6.30;;
10347;SDS011;5220;43.192;23.284;2023-05-29T09:20:26;10.85;;;7.25;;
10347;SDS011;5220;43.192;23.284;2023-05-29T09:22:54;8.23;;;7.53;;
10347;SDS011;5220;43.192;23.284;2023-05-29T09:25:22;7.82;;;7.03;;
10347;SDS011;5220;43.192;23.284;2023-05-29T09:27:55;9.30;;;6.95;;
10347;SDS011;5220;43.192;23.284;2023-05-29T09:30:31;7.53;;;6.70;;
10347;SDS011;5220;43.192;23.284;2023-05-29T09:32:59;8.20;;;6.65;;
10347;SDS011;5220;43.192;23.284;2023-05-29T09:35:27;6.95;;;6.25;;
10347;SDS011;5220;43.192;23.284;2023-05-29T09:37:59;6.93;;;5.95;;
10347;SDS011;5220;43.192;23.284;2023-05-29T09:40:25;7.25;;;6.55;;
10347;SDS011;5220;43.192;23.284;2023-05-29T09:42:56;6.85;;;6.25;;
10347;SDS011;5220;43.192;23.284;2023-05-29T09:45:29;7.95;;;6.85;;
10347;SDS011;5220;43.192;23.284;2023-05-29T09:47:56;7.72;;;6.90;;
10347;SDS011;5220;43.192;23.284;2023-05-29T09:50:25;7.90;;;7.10;;
10347;SDS011;5220;43.192;23.284;2023-05-29T09:52:53;7.20;;;6.50;;
10347;SDS011;5220;43.192;23.284;2023-05-29T09:55:21;8.18;;;6.20;;
10347;SDS011;5220;43.192;23.284;2023-05-29T09:57:51;8.70;;;7.55;;
10347;SDS011;5220;43.192;23.284;2023-05-29T10:00:21;7.05;;;6.35;;
10347;SDS011;5220;43.192;23.284;2023-05-29T10:02:49;7.40;;;6.55;;
10347;SDS011;5220;43.192;23.284;2023-05-29T10:05:16;7.10;;;6.40;;
10347;SDS011;5220;43.192;23.284;2023-05-29T10:07:43;7.40;;;6.80;;
10347;SDS011;5220;43.192;23.284;2023-05-29T10:10:13;8.55;;;6.90;;
10347;SDS011;5220;43.192;23.284;2023-05-29T10:12:42;7.00;;;6.30;;
10347;SDS011;5220;43.192;23.284;2023-05-29T10:15:11;8.70;;;6.13;;
10347;SDS011;5220;43.192;23.284;2023-05-29T10:17:42;7.80;;;7.05;;
10347;SDS011;5220;43.192;23.284;2023-05-29T10:20:16;7.72;;;6.93;;
10347;SDS011;5220;43.192;23.284;2023-05-29T10:22:47;6.65;;;6.05;;
10347;SDS011;5220;43.192;23.284;2023-05-29T10:25:17;6.43;;;5.82;;
10347;SDS011;5220;43.192;23.284;2023-05-29T10:27:45;6.38;;;5.78;;
10347;SDS011;5220;43.192;23.284;2023-05-29T10:30:14;9.02;;;5.68;;
10347;SDS011;5220;43.192;23.284;2023-05-29T10:32:55;5.60;;;5.20;;
10347;SDS011;5220;43.192;23.284;2023-05-29T10:35:36;5.95;;;4.75;;
10347;SDS011;5220;43.192;23.284;2023-05-29T10:38:10;5.65;;;5.03;;
10347;SDS011;5220;43.192;23.284;2023-05-29T10:40:38;5.40;;;4.90;;
10347;SDS011;5220;43.192;23.284;2023-05-29T10:43:07;5.47;;;4.97;;
10347;SDS011;5220;43.192;23.284;2023-05-29T10:45:48;5.63;;;4.97;;
10347;SDS011;5220;43.192;23.284;2023-05-29T10:48:39;5.35;;;4.70;;
10347;SDS011;5220;43.192;23.284;2023-05-29T10:51:07;5.80;;;5.22;;
10347;SDS011;5220;43.192;23.284;2023-05-29T10:53:35;5.93;;;5.32;;
10347;SDS011;5220;43.192;23.284;2023-05-29T10:56:07;9.50;;;7.05;;
10347;SDS011;5220;43.192;23.284;2023-05-29T10:58:36;9.00;;;6.47;;
10347;SDS011;5220;43.192;23.284;2023-05-29T11:01:03;6.10;;;5.60;;
10347;SDS011;5220;43.192;23.284;2023-05-29T11:03:30;7.00;;;5.60;;
10347;SDS011;5220;43.192;23.284;2023-05-29T11:06:00;7.38;;;6.35;;
10347;SDS011;5220;43.192;23.284;2023-05-29T11:08:28;8.10;;;7.40;;
10347;SDS011;5220;43.192;23.284;2023-05-29T11:10:59;8.98;;;7.75;;
10347;SDS011;5220;43.192;23.284;2023-05-29T11:13:26;10.02;;;8.52;;
10347;SDS011;5220;43.192;23.284;2023-05-29T11:16:04;9.35;;;8.30;;
10347;SDS011;5220;43.192;23.284;2023-05-29T11:18:45;10.20;;;8.77;;
10347;SDS011;5220;43.192;23.284;2023-05-29T11:21:27;9.68;;;8.75;;
10347;SDS011;5220;43.192;23.284;2023-05-29T11:23:57;9.43;;;8.52;;
10347;SDS011;5220;43.192;23.284;2023-05-29T11:26:28;8.93;;;8.13;;
10347;SDS011;5220;43.192;23.284;2023-05-29T11:28:57;8.20;;;7.40;;
10347;SDS011;5220;43.192;23.284;2023-05-29T11:31:24;6.70;;;6.10;;
10347;SDS011;5220;43.192;23.284;2023-05-29T11:33:53;6.18;;;5.10;;
10347;SDS011;5220;43.192;23.284;2023-05-29T11:36:26;6.18;;;5.57;;
10347;SDS011;5220;43.192;23.284;2023-05-29T11:38:53;5.15;;;4.65;;
10347;SDS011;5220;43.192;23.284;2023-05-29T11:41:20;5.82;;;5.22;;
10347;SDS011;5220;43.192;23.284;2023-05-29T11:43:55;6.85;;;5.45;;
10347;SDS011;5220;43.192;23.284;2023-05-29T11:46:23;4.80;;;4.40;;
10347;SDS011;5220;43.192;23.284;2023-05-29T11:48:51;4.85;;;4.45;;
10347;SDS011;5220;43.192;23.284;2023-05-29T11:51:18;5.13;;;4.05;;
10347;SDS011;5220;43.192;23.284;2023-05-29T11:53:47;4.22;;;3.83;;
10347;SDS011;5220;43.192;23.284;2023-05-29T11:56:18;4.10;;;3.70;;
10347;SDS011;5220;43.192;23.284;2023-05-29T11:58:46;3.85;;;3.55;;
10347;SDS011;5220;43.192;23.284;2023-05-29T12:01:13;9.38;;;4.57;;
10347;SDS011;5220;43.192;23.284;2023-05-29T12:03:44;5.68;;;4.18;;
10347;SDS011;5220;43.192;23.284;2023-05-29T12:06:11;6.03;;;4.15;;
10347;SDS011;5220;43.192;23.284;2023-05-29T12:08:38;4.90;;;4.50;;
10347;SDS011;5220;43.192;23.284;2023-05-29T12:11:07;5.60;;;4.65;;
10347;SDS011;5220;43.192;23.284;2023-05-29T12:13:34;6.18;;;4.75;;
10347;SDS011;5220;43.192;23.284;2023-05-29T12:16:02;5.82;;;5.00;;
10347;SDS011;5220;43.192;23.284;2023-05-29T12:18:31;4.75;;;4.35;;
10347;SDS011;5220;43.192;23.284;2023-05-29T12:20:59;4.45;;;3.90;;
10347;SDS011;5220;43.192;23.284;2023-05-29T12:23:27;6.25;;;3.22;;
10347;SDS011;5220;43.192;23.284;2023-05-29T12:25:54;4.70;;;3.67;;
10347;SDS011;5220;43.192;23.284;2023-05-29T12:28:23;4.38;;;3.67;;
10347;SDS011;5220;43.192;23.284;2023-05-29T12:30:49;4.95;;;4.25;;
10347;SDS011;5220;43.192;23.284;2023-05-29T12:33:24;4.55;;;3.45;;
10347;SDS011;5220;43.192;23.284;2023-05-29T12:35:53;4.03;;;3.67;;
10347;SDS011;5220;43.192;23.284;2023-05-29T12:38:19;3.47;;;3.28;;
10347;SDS011;5220;43.192;23.284;2023-05-29T12:40:47;3.97;;;3.67;;
10347;SDS011;5220;43.192;23.284;2023-05-29T12:43:15;3.65;;;3.00;;
10347;SDS011;5220;43.192;23.284;2023-05-29T12:45:44;6.55;;;4.10;;
10347;SDS011;5220;43.192;23.284;2023-05-29T12:48:11;3.78;;;3.47;;
10347;SDS011;5220;43.192;23.284;2023-05-29T12:50:37;3.72;;;3.22;;
10347;SDS011;5220;43.192;23.284;2023-05-29T12:53:05;3.58;;;3.30;;
10347;SDS011;5220;43.192;23.284;2023-05-29T12:55:33;6.85;;;3.33;;
10347;SDS011;5220;43.192;23.284;2023-05-29T12:58:04;3.75;;;3.45;;
10347;SDS011;5220;43.192;23.284;2023-05-29T13:00:31;3.40;;;3.10;;
10347;SDS011;5220;43.192;23.284;2023-05-29T13:02:59;4.97;;;3.05;;
10347;SDS011;5220;43.192;23.284;2023-05-29T13:05:26;3.38;;;3.08;;
10347;SDS011;5220;43.192;23.284;2023-05-29T13:07:53;3.70;;;3.40;;
10347;SDS011;5220;43.192;23.284;2023-05-29T13:10:20;3.20;;;3.00;;
10347;SDS011;5220;43.192;23.284;2023-05-29T13:12:48;6.18;;;3.45;;
10347;SDS011;5220;43.192;23.284;2023-05-29T13:15:19;4.43;;;3.10;;
10347;SDS011;5220;43.192;23.284;2023-05-29T13:17:45;3.78;;;3.35;;
10347;SDS011;5220;43.192;23.284;2023-05-29T13:20:13;6.63;;;3.47;;
10347;SDS011;5220;43.192;23.284;2023-05-29T13:22:42;3.38;;;3.08;;
10347;SDS011;5220;43.192;23.284;2023-05-29T13:25:11;3.60;;;3.30;;
10347;SDS011;5220;43.192;23.284;2023-05-29T13:27:40;3.50;;;3.20;;
10347;SDS011;5220;43.192;23.284;2023-05-29T13:30:08;3.53;;;3.22;;
10347;SDS011;5220;43.192;23.284;2023-05-29T13:32:37;3.92;;;3.63;;
10347;SDS011;5220;43.192;23.284;2023-05-29T13:35:05;3.55;;;3.25;;
10347;SDS011;5220;43.192;23.284;2023-05-29T13:37:34;3.63;;;3.35;;
10347;SDS011;5220;43.192;23.284;2023-05-29T13:40:01;3.75;;;3.53;;
10347;SDS011;5220;43.192;23.284;2023-05-29T13:42:30;4.20;;;3.80;;
10347;SDS011;5220;43.192;23.284;2023-05-29T13:44:57;3.75;;;3.45;;
10347;SDS011;5220;43.192;23.284;2023-05-29T13:47:26;4.05;;;3.58;;
10347;SDS011;5220;43.192;23.284;2023-05-29T13:49:53;4.13;;;3.45;;
10347;SDS011;5220;43.192;23.284;2023-05-29T13:52:20;6.18;;;3.53;;
10347;SDS011;5220;43.192;23.284;2023-05-29T13:54:49;9.68;;;3.70;;
10347;SDS011;5220;43.192;23.284;2023-05-29T13:57:15;8.20;;;3.67;;
10347;SDS011;5220;43.192;23.284;2023-05-29T13:59:42;4.97;;;2.95;;
10347;SDS011;5220;43.192;23.284;2023-05-29T14:02:10;8.13;;;3.83;;
10347;SDS011;5220;43.192;23.284;2023-05-29T14:04:38;9.82;;;4.00;;
10347;SDS011;5220;43.192;23.284;2023-05-29T14:07:07;3.85;;;3.55;;
10347;SDS011;5220;43.192;23.284;2023-05-29T14:09:34;4.10;;;3.70;;
10347;SDS011;5220;43.192;23.284;2023-05-29T14:12:02;3.53;;;3.22;;
10347;SDS011;5220;43.192;23.284;2023-05-29T14:14:31;3.28;;;3.05;;
10347;SDS011;5220;43.192;23.284;2023-05-29T14:16:59;3.90;;;3.28;;
10347;SDS011;5220;43.192;23.284;2023-05-29T14:19:25;3.88;;;3.40;;
10347;SDS011;5220;43.192;23.284;2023-05-29T14:21:52;4.25;;;3.90;;
10347;SDS011;5220;43.192;23.284;2023-05-29T14:24:19;3.75;;;3.45;;
10347;SDS011;5220;43.192;23.284;2023-05-29T14:26:45;4.65;;;4.20;;
10347;SDS011;5220;43.192;23.284;2023-05-29T14:29:14;3.80;;;3.50;;
10347;SDS011;5220;43.192;23.284;2023-05-29T14:31:40;4.13;;;3.67;;
10347;SDS011;5220;43.192;23.284;2023-05-29T14:34:07;5.15;;;3.80;;
10347;SDS011;5220;43.192;23.284;2023-05-29T14:36:34;4.07;;;3.65;;
10347;SDS011;5220;43.192;23.284;2023-05-29T14:39:02;4.65;;;3.80;;
10347;SDS011;5220;43.192;23.284;2023-05-29T14:41:28;4.90;;;4.50;;
10347;SDS011;5220;43.192;23.284;2023-05-29T14:43:55;4.60;;;4.20;;
10347;SDS011;5220;43.192;23.284;2023-05-29T14:46:24;6.70;;;3.83;;
10347;SDS011;5220;43.192;23.284;2023-05-29T14:48:53;7.75;;;3.90;;
10347;SDS011;5220;43.192;23.284;2023-05-29T14:51:20;4.30;;;3.75;;
10347;SDS011;5220;43.192;23.284;2023-05-29T14:53:48;6.65;;;4.13;;
10347;SDS011;5220;43.192;23.284;2023-05-29T14:56:14;4.30;;;3.72;;